createdAt,value
2023-01-15T00:00:27.208Z,99.99
2023-01-15T00:01:27.301Z,99.99
2023-01-15T00:02:27.257Z,99.99
2023-01-15T00:03:27.225Z,99.99
2023-01-15T00:04:27.171Z,99.99
2023-01-15T00:05:27.155Z,99.99
2023-01-15T00:06:27.133Z,99.99
2023-01-15T00:07:27.172Z,99.99
2023-01-15T00:08:27.119Z,99.99
2023-01-15T00:09:27.121Z,99.99
2023-01-15T00:10:27.104Z,99.99
2023-01-15T00:11:27.098Z,99.99
2023-01-15T00:12:27.189Z,99.99
2023-01-15T00:13:27.060Z,99.99
2023-01-15T00:14:27.050Z,99.99
2023-01-15T00:15:27.058Z,99.99
2023-01-15T00:16:27.020Z,99.99
2023-01-15T00:17:27.042Z,99.99
2023-01-15T00:18:27.044Z,99.99
2023-01-15T00:19:27.015Z,99.99
2023-01-15T00:20:26.994Z,99.99
2023-01-15T00:21:26.993Z,99.99
2023-01-15T00:22:26.946Z,99.99
2023-01-15T00:23:26.949Z,99.99
2023-01-15T00:24:26.985Z,99.99
2023-01-15T00:25:26.932Z,99.99
2023-01-15T00:26:26.911Z,99.99
2023-01-15T00:27:26.910Z,99.99
2023-01-15T00:28:26.893Z,99.99
2023-01-15T00:29:26.905Z,99.99
2023-01-15T00:30:26.863Z,99.99
2023-01-15T00:31:26.920Z,99.99
2023-01-15T00:32:26.842Z,99.99
2023-01-15T00:33:26.828Z,99.99
2023-01-15T00:34:26.821Z,99.99
2023-01-15T00:35:27.013Z,99.99
2023-01-15T00:36:26.787Z,99.99
2023-01-15T00:37:26.797Z,99.99
2023-01-15T00:38:26.769Z,99.99
2023-01-15T00:39:26.767Z,99.99
2023-01-15T00:40:26.751Z,99.99
2023-01-15T00:41:26.756Z,99.99
2023-01-15T00:42:26.730Z,99.99
2023-01-15T00:43:26.715Z,99.99
2023-01-15T00:44:27.416Z,99.99
2023-01-15T00:45:26.693Z,99.99
2023-01-15T00:46:26.718Z,99.99
2023-01-15T00:47:26.683Z,99.99
2023-01-15T00:48:26.649Z,99.99
2023-01-15T00:49:26.640Z,99.99
2023-01-15T00:50:26.628Z,99.99
2023-01-15T00:51:26.615Z,99.99
2023-01-15T00:52:26.585Z,99.99
2023-01-15T00:53:26.674Z,99.99
2023-01-15T00:54:34.153Z,99.99
2023-01-15T00:55:26.580Z,99.99
2023-01-15T00:56:26.548Z,99.99
2023-01-15T00:57:26.541Z,99.99
2023-01-15T00:58:26.556Z,99.99
2023-01-15T00:59:26.549Z,99.99
2023-01-15T01:00:26.503Z,99.99
2023-01-15T01:01:26.618Z,99.99
2023-01-15T01:02:26.564Z,99.99
2023-01-15T01:03:26.471Z,99.99
2023-01-15T01:04:26.572Z,99.99
2023-01-15T01:05:26.520Z,99.99
2023-01-15T01:06:26.447Z,99.99
2023-01-15T01:07:26.445Z,99.99
2023-01-15T01:08:26.411Z,99.99
2023-01-15T01:09:26.415Z,99.99
2023-01-15T01:10:26.442Z,99.99
2023-01-15T01:11:26.384Z,99.99
2023-01-15T01:12:26.393Z,99.99
2023-01-15T01:13:26.362Z,99.99
2023-01-15T01:14:26.345Z,99.99
2023-01-15T01:15:26.331Z,99.99
2023-01-15T01:16:26.376Z,99.99
2023-01-15T01:17:26.311Z,99.99
2023-01-15T01:18:26.294Z,99.99
2023-01-15T01:19:26.290Z,99.99
2023-01-15T01:20:26.267Z,99.99
2023-01-15T01:21:26.292Z,99.99
2023-01-15T01:22:26.250Z,99.99
2023-01-15T01:23:26.247Z,99.99
2023-01-15T01:24:26.220Z,99.99
2023-01-15T01:25:26.214Z,99.99
2023-01-15T01:26:26.208Z,99.99
2023-01-15T01:27:26.213Z,99.99
2023-01-15T01:28:26.166Z,99.99
2023-01-15T01:29:26.188Z,99.99
2023-01-15T01:30:26.172Z,99.99
2023-01-15T01:31:26.154Z,99.99
2023-01-15T01:32:26.131Z,99.99
2023-01-15T01:33:26.275Z,99.99
2023-01-15T01:34:26.107Z,99.99
2023-01-15T01:35:26.099Z,99.99
2023-01-15T01:36:26.077Z,99.99
2023-01-15T01:37:26.088Z,99.99
2023-01-15T01:38:26.060Z,99.99
2023-01-15T01:39:26.095Z,99.99
2023-01-15T01:40:26.036Z,99.99
2023-01-15T01:41:26.078Z,99.99
2023-01-15T01:42:26.012Z,99.99
2023-01-15T01:43:26.037Z,99.99
2023-01-15T01:44:26.008Z,99.99
2023-01-15T01:45:26.078Z,99.99
2023-01-15T01:46:25.967Z,99.99
2023-01-15T01:47:25.958Z,99.99
2023-01-15T01:48:25.940Z,99.99
2023-01-15T01:49:25.939Z,99.99
2023-01-15T01:50:25.940Z,99.99
2023-01-15T01:51:25.926Z,99.99
2023-01-15T01:52:25.897Z,99.99
2023-01-15T01:53:25.894Z,99.99
2023-01-15T01:54:25.880Z,99.99
2023-01-15T01:55:25.873Z,99.99
2023-01-15T01:56:25.850Z,99.99
2023-01-15T01:57:25.916Z,99.99
2023-01-15T01:58:25.831Z,99.99
2023-01-15T01:59:25.838Z,99.99
2023-01-15T02:00:25.819Z,99.99
2023-01-15T02:01:25.884Z,99.99
2023-01-15T02:02:25.864Z,99.99
2023-01-15T02:03:25.811Z,99.99
2023-01-15T02:04:25.783Z,99.99
2023-01-15T02:05:25.774Z,99.99
2023-01-15T02:06:25.730Z,99.99
2023-01-15T02:07:25.733Z,99.99
2023-01-15T02:08:25.760Z,99.99
2023-01-15T02:09:25.710Z,99.99
2023-01-15T02:10:25.712Z,99.99
2023-01-15T02:11:25.692Z,99.99
2023-01-15T02:12:25.700Z,99.99
2023-01-15T02:13:25.653Z,99.99
2023-01-15T02:14:25.691Z,99.99
2023-01-15T02:15:25.655Z,99.99
2023-01-15T02:16:25.678Z,99.99
2023-01-15T02:17:25.676Z,99.99
2023-01-15T02:18:25.593Z,99.03
2023-01-15T02:19:25.608Z,99.99
2023-01-15T02:20:25.655Z,99.99
2023-01-15T02:21:25.578Z,99.99
2023-01-15T02:22:25.571Z,99.03
2023-01-15T02:23:25.570Z,99.28
2023-01-15T02:24:25.588Z,99.99
2023-01-15T02:25:25.522Z,99.99
2023-01-15T02:26:25.580Z,99.99
2023-01-15T02:27:25.504Z,99.99
2023-01-15T02:28:25.497Z,99.99
2023-01-15T02:29:25.491Z,99.99
2023-01-15T02:30:25.475Z,99.99
2023-01-15T02:31:25.491Z,99.99
2023-01-15T02:32:25.471Z,99.99
2023-01-15T02:33:25.427Z,99.99
2023-01-15T02:34:25.452Z,99.99
2023-01-15T02:35:25.417Z,99.99
2023-01-15T02:36:25.398Z,99.99
2023-01-15T02:37:25.415Z,99.99
2023-01-15T02:38:25.386Z,99.99
2023-01-15T02:39:25.362Z,99.99
2023-01-15T02:40:25.355Z,99.99
2023-01-15T02:41:25.344Z,99.99
2023-01-15T02:42:25.347Z,99.99
2023-01-15T02:43:25.335Z,99.99
2023-01-15T02:44:25.309Z,98.71
2023-01-15T02:45:25.397Z,99.99
2023-01-15T02:46:25.285Z,99.58
2023-01-15T02:47:25.325Z,98.04
2023-01-15T02:48:25.271Z,96.81
2023-01-15T02:49:25.375Z,96.91
2023-01-15T02:50:25.234Z,97.89
2023-01-15T02:51:25.233Z,97.42
2023-01-15T02:52:25.232Z,97.27
2023-01-15T02:53:25.222Z,97.06
2023-01-15T02:54:25.208Z,95.42
2023-01-15T02:55:25.211Z,95.36
2023-01-15T02:56:25.204Z,96.14
2023-01-15T02:57:25.146Z,94.80
2023-01-15T02:58:25.136Z,95.46
2023-01-15T02:59:25.127Z,93.65
2023-01-15T03:00:25.177Z,94.27
2023-01-15T03:01:25.194Z,93.55
2023-01-15T03:02:25.137Z,93.65
2023-01-15T03:03:25.103Z,93.86
2023-01-15T03:04:25.076Z,93.86
2023-01-15T03:05:25.066Z,94.17
2023-01-15T03:06:25.081Z,93.90
2023-01-15T03:07:25.053Z,93.90
2023-01-15T03:08:25.074Z,94.11
2023-01-15T03:09:25.016Z,94.17
2023-01-15T03:10:24.997Z,93.76
2023-01-15T03:11:25.008Z,94.27
2023-01-15T03:12:25.022Z,95.34
2023-01-15T03:13:25.007Z,95.71
2023-01-15T03:14:24.956Z,95.50
2023-01-15T03:15:24.941Z,94.84
2023-01-15T03:16:24.941Z,94.58
2023-01-15T03:17:24.930Z,95.20
2023-01-15T03:18:24.938Z,95.50
2023-01-15T03:19:24.919Z,94.27
2023-01-15T03:20:24.877Z,93.90
2023-01-15T03:21:24.870Z,93.04
2023-01-15T03:22:24.877Z,90.34
2023-01-15T03:23:24.920Z,90.75
2023-01-15T03:24:24.831Z,92.87
2023-01-15T03:25:24.892Z,90.03
2023-01-15T03:26:24.813Z,89.62
2023-01-15T03:27:24.817Z,88.90
2023-01-15T03:28:24.811Z,89.73
2023-01-15T03:29:24.818Z,90.03
2023-01-15T03:30:24.805Z,90.75
2023-01-15T03:31:24.763Z,90.75
2023-01-15T03:32:24.761Z,89.77
2023-01-15T03:33:24.732Z,89.15
2023-01-15T03:34:24.741Z,88.64
2023-01-15T03:35:24.704Z,88.64
2023-01-15T03:36:24.707Z,88.70
2023-01-15T03:37:24.687Z,89.36
2023-01-15T03:38:24.670Z,90.28
2023-01-15T03:39:24.662Z,90.90
2023-01-15T03:40:24.680Z,91.47
2023-01-15T03:41:24.643Z,91.93
2023-01-15T03:42:24.621Z,93.31
2023-01-15T03:43:24.611Z,93.01
2023-01-15T03:44:24.622Z,93.01
2023-01-15T03:45:24.702Z,92.80
2023-01-15T03:46:24.615Z,92.86
2023-01-15T03:47:24.570Z,92.18
2023-01-15T03:48:24.571Z,92.94
2023-01-15T03:49:24.559Z,92.74
2023-01-15T03:50:24.545Z,93.25
2023-01-15T03:51:24.527Z,93.35
2023-01-15T03:52:24.542Z,93.01
2023-01-15T03:53:24.504Z,92.90
2023-01-15T03:54:24.491Z,92.69
2023-01-15T03:55:24.493Z,92.33
2023-01-15T03:56:24.492Z,92.18
2023-01-15T03:57:24.492Z,93.01
2023-01-15T03:58:24.477Z,92.74
2023-01-15T03:59:24.462Z,93.31
2023-01-15T04:00:24.423Z,93.21
2023-01-15T04:01:24.499Z,93.73
2023-01-15T04:02:24.424Z,93.01
2023-01-15T04:03:24.436Z,92.49
2023-01-15T04:04:24.375Z,91.97
2023-01-15T04:05:24.402Z,92.29
2023-01-15T04:06:24.374Z,91.87
2023-01-15T04:07:24.376Z,92.14
2023-01-15T04:08:24.335Z,91.87
2023-01-15T04:09:24.404Z,92.29
2023-01-15T04:10:24.314Z,93.11
2023-01-15T04:11:24.295Z,93.31
2023-01-15T04:12:24.285Z,93.93
2023-01-15T04:13:24.308Z,94.13
2023-01-15T04:14:24.256Z,93.88
2023-01-15T04:15:24.304Z,93.93
2023-01-15T04:16:24.273Z,94.24
2023-01-15T04:17:24.237Z,93.93
2023-01-15T04:18:24.237Z,93.37
2023-01-15T04:19:24.226Z,93.05
2023-01-15T04:20:24.217Z,93.46
2023-01-15T04:21:24.205Z,93.77
2023-01-15T04:22:24.165Z,93.87
2023-01-15T04:23:24.165Z,94.65
2023-01-15T04:24:24.159Z,93.79
2023-01-15T04:25:24.150Z,92.80
2023-01-15T04:26:24.157Z,93.41
2023-01-15T04:27:24.133Z,92.80
2023-01-15T04:28:24.110Z,92.90
2023-01-15T04:29:24.109Z,93.01
2023-01-15T04:30:24.081Z,93.21
2023-01-15T04:31:24.123Z,93.25
2023-01-15T04:32:24.061Z,92.96
2023-01-15T04:33:24.047Z,92.84
2023-01-15T04:34:24.041Z,93.06
2023-01-15T04:35:24.029Z,92.53
2023-01-15T04:36:24.031Z,93.15
2023-01-15T04:37:24.019Z,93.01
2023-01-15T04:38:23.987Z,92.84
2023-01-15T04:39:23.985Z,93.41
2023-01-15T04:40:23.966Z,93.01
2023-01-15T04:41:23.962Z,93.56
2023-01-15T04:42:23.978Z,93.66
2023-01-15T04:43:23.948Z,93.35
2023-01-15T04:44:23.910Z,94.02
2023-01-15T04:45:23.908Z,94.32
2023-01-15T04:46:23.906Z,95.10
2023-01-15T04:47:23.892Z,95.00
2023-01-15T04:48:23.901Z,94.95
2023-01-15T04:49:23.863Z,94.95
2023-01-15T04:50:23.850Z,94.53
2023-01-15T04:51:23.856Z,94.53
2023-01-15T04:52:23.852Z,93.81
2023-01-15T04:53:23.809Z,94.02
2023-01-15T04:54:23.819Z,94.32
2023-01-15T04:55:23.790Z,94.49
2023-01-15T04:56:23.801Z,93.15
2023-01-15T04:57:23.769Z,93.66
2023-01-15T04:58:23.769Z,93.66
2023-01-15T04:59:23.776Z,93.60
2023-01-15T05:00:23.731Z,94.64
2023-01-15T05:01:23.816Z,94.32
2023-01-15T05:02:23.801Z,94.12
2023-01-15T05:03:23.722Z,93.81
2023-01-15T05:04:23.691Z,94.12
2023-01-15T05:05:23.750Z,93.30
2023-01-15T05:06:23.681Z,93.81
2023-01-15T05:07:23.658Z,94.43
2023-01-15T05:08:23.647Z,93.56
2023-01-15T05:09:23.656Z,92.84
2023-01-15T05:10:23.621Z,93.85
2023-01-15T05:11:23.631Z,94.12
2023-01-15T05:12:23.625Z,93.91
2023-01-15T05:13:23.647Z,94.12
2023-01-15T05:14:23.653Z,93.77
2023-01-15T05:15:23.571Z,93.66
2023-01-15T05:16:23.605Z,93.77
2023-01-15T05:17:23.542Z,94.08
2023-01-15T05:18:23.532Z,94.02
2023-01-15T05:19:23.540Z,94.64
2023-01-15T05:20:23.512Z,94.28
2023-01-15T05:21:23.549Z,94.02
2023-01-15T05:22:23.514Z,94.12
2023-01-15T05:23:23.472Z,94.02
2023-01-15T05:24:23.463Z,94.08
2023-01-15T05:25:23.456Z,94.12
2023-01-15T05:26:23.455Z,94.84
2023-01-15T05:27:23.463Z,94.74
2023-01-15T05:28:23.429Z,94.43
2023-01-15T05:29:23.422Z,94.49
2023-01-15T05:30:23.395Z,94.70
2023-01-15T05:31:23.434Z,93.71
2023-01-15T05:32:23.364Z,94.02
2023-01-15T05:33:23.405Z,94.43
2023-01-15T05:34:23.341Z,94.74
2023-01-15T05:35:23.340Z,94.74
2023-01-15T05:36:23.344Z,94.90
2023-01-15T05:37:23.326Z,93.98
2023-01-15T05:38:23.307Z,94.49
2023-01-15T05:39:23.315Z,93.87
2023-01-15T05:40:23.301Z,94.70
2023-01-15T05:41:23.256Z,94.12
2023-01-15T05:42:23.246Z,94.70
2023-01-15T05:43:23.239Z,94.49
2023-01-15T05:44:23.248Z,93.66
2023-01-15T05:45:23.243Z,94.32
2023-01-15T05:46:23.253Z,95.40
2023-01-15T05:47:23.220Z,95.46
2023-01-15T05:48:23.183Z,95.77
2023-01-15T05:49:23.195Z,94.53
2023-01-15T05:50:23.179Z,94.43
2023-01-15T05:51:23.181Z,95.25
2023-01-15T05:52:23.157Z,95.56
2023-01-15T05:53:23.152Z,95.46
2023-01-15T05:54:23.129Z,95.52
2023-01-15T05:55:23.137Z,95.31
2023-01-15T05:56:23.111Z,95.46
2023-01-15T05:57:23.138Z,95.62
2023-01-15T05:58:23.077Z,95.10
2023-01-15T05:59:23.077Z,95.56
2023-01-15T06:00:23.053Z,95.56
2023-01-15T06:01:23.120Z,96.33
2023-01-15T06:02:23.143Z,96.66
2023-01-15T06:03:23.100Z,95.83
2023-01-15T06:04:23.027Z,95.87
2023-01-15T06:05:22.997Z,96.08
2023-01-15T06:06:22.979Z,95.56
2023-01-15T06:07:22.978Z,95.77
2023-01-15T06:08:22.999Z,95.67
2023-01-15T06:09:23.085Z,95.21
2023-01-15T06:10:22.950Z,95.46
2023-01-15T06:11:22.970Z,95.56
2023-01-15T06:12:22.931Z,96.70
2023-01-15T06:13:22.929Z,95.87
2023-01-15T06:14:22.927Z,95.83
2023-01-15T06:15:22.880Z,94.95
2023-01-15T06:16:22.936Z,95.10
2023-01-15T06:17:23.017Z,95.00
2023-01-15T06:18:22.861Z,93.81
2023-01-15T06:19:22.844Z,94.68
2023-01-15T06:20:22.893Z,95.15
2023-01-15T06:21:22.830Z,94.74
2023-01-15T06:22:22.812Z,94.74
2023-01-15T06:23:22.800Z,95.05
2023-01-15T06:24:22.781Z,94.64
2023-01-15T06:25:22.843Z,94.23
2023-01-15T06:26:22.758Z,94.06
2023-01-15T06:27:22.744Z,94.27
2023-01-15T06:28:22.766Z,95.40
2023-01-15T06:29:22.763Z,95.24
2023-01-15T06:30:22.820Z,95.40
2023-01-15T06:31:22.791Z,95.50
2023-01-15T06:32:22.682Z,95.50
2023-01-15T06:33:22.681Z,94.93
2023-01-15T06:34:22.662Z,95.40
2023-01-15T06:35:22.661Z,95.36
2023-01-15T06:36:22.661Z,94.49
2023-01-15T06:37:22.656Z,93.81
2023-01-15T06:38:22.624Z,94.02
2023-01-15T06:39:22.603Z,94.82
2023-01-15T06:40:22.622Z,95.86
2023-01-15T06:41:22.583Z,95.50
2023-01-15T06:42:22.611Z,94.06
2023-01-15T06:43:22.583Z,94.84
2023-01-15T06:44:22.578Z,94.47
2023-01-15T06:45:22.546Z,94.53
2023-01-15T06:46:22.550Z,95.05
2023-01-15T06:47:23.287Z,93.77
2023-01-15T06:48:22.551Z,93.05
2023-01-15T06:49:22.500Z,92.68
2023-01-15T06:50:22.484Z,92.88
2023-01-15T06:51:22.482Z,93.59
2023-01-15T06:52:22.469Z,95.14
2023-01-15T06:53:22.452Z,95.09
2023-01-15T06:54:22.455Z,94.21
2023-01-15T06:55:22.415Z,95.09
2023-01-15T06:56:22.432Z,94.47
2023-01-15T06:57:22.442Z,94.37
2023-01-15T06:58:22.391Z,94.31
2023-01-15T06:59:22.414Z,94.93
2023-01-15T07:00:22.373Z,94.42
2023-01-15T07:01:22.481Z,93.90
2023-01-15T07:02:22.357Z,93.90
2023-01-15T07:03:22.334Z,94.06
2023-01-15T07:04:22.322Z,93.44
2023-01-15T07:05:22.335Z,92.61
2023-01-15T07:06:22.304Z,93.24
2023-01-15T07:07:22.327Z,92.88
2023-01-15T07:08:22.276Z,92.21
2023-01-15T07:09:22.272Z,92.93
2023-01-15T07:10:22.288Z,93.13
2023-01-15T07:11:22.260Z,93.38
2023-01-15T07:12:22.230Z,93.69
2023-01-15T07:13:22.226Z,94.52
2023-01-15T07:14:22.206Z,94.31
2023-01-15T07:15:22.211Z,94.17
2023-01-15T07:16:22.229Z,93.13
2023-01-15T07:17:22.176Z,93.28
2023-01-15T07:18:22.171Z,94.17
2023-01-15T07:19:22.163Z,93.44
2023-01-15T07:20:22.127Z,93.75
2023-01-15T07:21:22.158Z,94.12
2023-01-15T07:22:22.126Z,93.40
2023-01-15T07:23:22.117Z,92.53
2023-01-15T07:24:22.098Z,92.41
2023-01-15T07:25:22.090Z,92.97
2023-01-15T07:26:22.091Z,93.54
2023-01-15T07:27:22.108Z,94.42
2023-01-15T07:28:22.859Z,94.93
2023-01-15T07:29:22.055Z,94.68
2023-01-15T07:30:22.049Z,93.85
2023-01-15T07:31:22.138Z,94.52
2023-01-15T07:32:22.031Z,94.72
2023-01-15T07:33:22.085Z,94.68
2023-01-15T07:34:22.004Z,94.43
2023-01-15T07:35:21.985Z,93.54
2023-01-15T07:36:21.958Z,93.44
2023-01-15T07:37:21.950Z,94.10
2023-01-15T07:38:21.932Z,94.82
2023-01-15T07:39:21.955Z,94.93
2023-01-15T07:40:21.900Z,94.53
2023-01-15T07:41:21.899Z,93.50
2023-01-15T07:42:21.901Z,92.94
2023-01-15T07:43:21.880Z,92.53
2023-01-15T07:44:21.900Z,92.22
2023-01-15T07:45:22.031Z,91.77
2023-01-15T07:46:21.823Z,90.73
2023-01-15T07:47:21.821Z,89.81
2023-01-15T07:48:21.791Z,90.22
2023-01-15T07:49:21.812Z,90.01
2023-01-15T07:50:21.801Z,90.47
2023-01-15T07:51:21.768Z,90.99
2023-01-15T07:52:21.759Z,90.84
2023-01-15T07:53:21.759Z,90.43
2023-01-15T07:54:21.730Z,90.31
2023-01-15T07:55:21.718Z,90.78
2023-01-15T07:56:21.743Z,91.34
2023-01-15T07:57:21.700Z,91.96
2023-01-15T07:58:21.693Z,91.91
2023-01-15T07:59:21.663Z,91.30
2023-01-15T08:00:21.659Z,91.30
2023-01-15T08:01:21.771Z,91.30
2023-01-15T08:02:21.649Z,91.05
2023-01-15T08:03:21.635Z,91.05
2023-01-15T08:04:21.618Z,90.59
2023-01-15T08:05:21.655Z,90.69
2023-01-15T08:06:21.582Z,90.14
2023-01-15T08:07:21.628Z,90.14
2023-01-15T08:08:21.564Z,89.52
2023-01-15T08:09:21.552Z,89.58
2023-01-15T08:10:21.579Z,88.96
2023-01-15T08:11:21.544Z,88.31
2023-01-15T08:12:21.521Z,88.14
2023-01-15T08:13:21.541Z,88.35
2023-01-15T08:14:21.502Z,88.66
2023-01-15T08:15:21.484Z,88.41
2023-01-15T08:16:21.503Z,89.28
2023-01-15T08:17:21.473Z,89.28
2023-01-15T08:18:21.442Z,89.58
2023-01-15T08:19:21.466Z,89.38
2023-01-15T08:20:21.424Z,89.62
2023-01-15T08:21:21.423Z,91.06
2023-01-15T08:22:21.455Z,90.41
2023-01-15T08:23:21.401Z,90.00
2023-01-15T08:24:21.423Z,90.20
2023-01-15T08:25:21.367Z,90.30
2023-01-15T08:26:21.376Z,90.30
2023-01-15T08:27:21.381Z,89.89
2023-01-15T08:28:21.332Z,89.69
2023-01-15T08:29:21.325Z,90.41
2023-01-15T08:30:21.363Z,90.72
2023-01-15T08:31:21.322Z,90.61
2023-01-15T08:32:21.306Z,90.51
2023-01-15T08:33:21.283Z,90.81
2023-01-15T08:34:21.281Z,90.96
2023-01-15T08:35:21.271Z,92.05
2023-01-15T08:36:21.283Z,92.05
2023-01-15T08:37:22.803Z,91.74
2023-01-15T08:38:21.235Z,91.53
2023-01-15T08:39:21.205Z,91.64
2023-01-15T08:40:21.187Z,91.39
2023-01-15T08:41:21.198Z,90.88
2023-01-15T08:42:21.235Z,91.08
2023-01-15T08:43:21.179Z,90.47
2023-01-15T08:44:21.155Z,90.67
2023-01-15T08:45:21.135Z,90.06
2023-01-15T08:46:21.127Z,90.47
2023-01-15T08:47:21.114Z,91.19
2023-01-15T08:48:21.123Z,90.57
2023-01-15T08:49:21.094Z,90.36
2023-01-15T08:50:21.083Z,89.81
2023-01-15T08:51:21.056Z,89.09
2023-01-15T08:52:21.067Z,88.98
2023-01-15T08:53:21.211Z,89.75
2023-01-15T08:54:21.026Z,90.06
2023-01-15T08:55:21.026Z,89.95
2023-01-15T08:56:21.005Z,90.49
2023-01-15T08:57:21.011Z,93.11
2023-01-15T08:58:21.019Z,94.55
2023-01-15T08:59:21.009Z,94.09
2023-01-15T09:00:20.999Z,93.79
2023-01-15T09:01:21.024Z,93.99
2023-01-15T09:02:20.945Z,93.11
2023-01-15T09:03:20.941Z,94.45
2023-01-15T09:04:21.009Z,95.02
2023-01-15T09:05:20.956Z,93.88
2023-01-15T09:06:20.911Z,94.30
2023-01-15T09:07:20.946Z,94.30
2023-01-15T09:08:20.904Z,94.20
2023-01-15T09:09:20.859Z,95.74
2023-01-15T09:10:20.870Z,94.81
2023-01-15T09:11:20.900Z,94.30
2023-01-15T09:12:20.829Z,94.30
2023-01-15T09:13:20.829Z,94.60
2023-01-15T09:14:56.059Z,93.33
2023-01-15T09:15:21.807Z,93.06
2023-01-15T09:16:20.921Z,94.30
2023-01-15T09:17:20.766Z,93.54
2023-01-15T09:18:20.785Z,93.23
2023-01-15T09:19:20.768Z,92.82
2023-01-15T09:20:20.750Z,92.20
2023-01-15T09:21:20.744Z,92.16
2023-01-15T09:22:20.757Z,91.78
2023-01-15T09:23:20.707Z,92.90
2023-01-15T09:24:20.689Z,93.68
2023-01-15T09:25:20.690Z,93.43
2023-01-15T09:26:20.675Z,91.53
2023-01-15T09:27:20.696Z,92.05
2023-01-15T09:28:20.659Z,91.38
2023-01-15T09:29:20.642Z,91.47
2023-01-15T09:30:20.653Z,93.58
2023-01-15T09:31:20.612Z,93.88
2023-01-15T09:32:20.611Z,93.31
2023-01-15T09:33:20.653Z,93.79
2023-01-15T09:34:20.594Z,93.83
2023-01-15T09:35:20.572Z,93.56
2023-01-15T09:36:20.551Z,93.31
2023-01-15T09:37:20.548Z,93.16
2023-01-15T09:38:20.531Z,91.89
2023-01-15T09:39:20.542Z,91.17
2023-01-15T09:40:20.548Z,89.77
2023-01-15T09:41:20.511Z,90.00
2023-01-15T09:42:20.502Z,89.22
2023-01-15T09:43:20.479Z,89.42
2023-01-15T09:44:20.512Z,89.73
2023-01-15T09:45:20.496Z,88.70
2023-01-15T09:46:20.518Z,89.22
2023-01-15T09:47:20.433Z,89.31
2023-01-15T09:48:20.447Z,89.62
2023-01-15T09:49:20.403Z,88.76
2023-01-15T09:50:20.491Z,88.24
2023-01-15T09:51:20.411Z,87.67
2023-01-15T09:52:20.361Z,87.87
2023-01-15T09:53:20.353Z,88.04
2023-01-15T09:54:20.361Z,86.80
2023-01-15T09:55:20.349Z,86.85
2023-01-15T09:56:20.355Z,87.36
2023-01-15T09:57:20.329Z,86.88
2023-01-15T09:58:20.293Z,86.31
2023-01-15T09:59:20.504Z,86.74
2023-01-15T10:00:20.372Z,86.16
2023-01-15T10:01:20.294Z,85.75
2023-01-15T10:02:20.274Z,85.55
2023-01-15T10:03:20.587Z,85.51
2023-01-15T10:04:20.967Z,85.61
2023-01-15T10:05:20.223Z,85.41
2023-01-15T10:06:20.213Z,84.27
2023-01-15T10:07:20.400Z,85.57
2023-01-15T10:08:20.192Z,85.16
2023-01-15T10:09:20.186Z,84.75
2023-01-15T10:10:20.560Z,85.02
2023-01-15T10:11:20.319Z,84.50
2023-01-15T10:12:20.333Z,83.72
2023-01-15T10:13:20.186Z,84.23
2023-01-15T10:14:20.485Z,83.48
2023-01-15T10:15:20.255Z,83.72
2023-01-15T10:16:21.016Z,83.31
2023-01-15T10:17:20.874Z,82.83
2023-01-15T10:18:20.676Z,83.35
2023-01-15T10:19:20.624Z,83.55
2023-01-15T10:20:20.189Z,83.51
2023-01-15T10:21:20.148Z,84.34
2023-01-15T10:22:20.066Z,83.97
2023-01-15T10:23:20.018Z,83.68
2023-01-15T10:24:20.351Z,83.62
2023-01-15T10:25:20.118Z,83.04
2023-01-15T10:26:20.675Z,82.39
2023-01-15T10:27:20.183Z,83.48
2023-01-15T10:28:19.975Z,82.39
2023-01-15T10:29:19.939Z,81.67
2023-01-15T10:30:19.966Z,82.79
2023-01-15T10:31:19.975Z,82.76
2023-01-15T10:32:19.906Z,82.34
2023-01-15T10:33:19.895Z,82.86
2023-01-15T10:34:19.899Z,83.00
2023-01-15T10:35:19.879Z,82.01
2023-01-15T10:36:19.896Z,82.18
2023-01-15T10:37:20.559Z,82.20
2023-01-15T10:38:19.917Z,81.93
2023-01-15T10:39:21.304Z,81.67
2023-01-15T10:40:19.979Z,81.91
2023-01-15T10:41:19.837Z,80.88
2023-01-15T10:42:20.160Z,81.35
2023-01-15T10:43:20.269Z,80.74
2023-01-15T10:44:19.808Z,80.77
2023-01-15T10:45:19.879Z,80.74
2023-01-15T10:46:19.970Z,80.33
2023-01-15T10:47:21.118Z,80.12
2023-01-15T10:48:19.972Z,80.22
2023-01-15T10:49:20.162Z,79.85
2023-01-15T10:50:21.608Z,79.81
2023-01-15T10:51:19.909Z,79.95
2023-01-15T10:52:19.810Z,80.02
2023-01-15T10:53:19.911Z,79.44
2023-01-15T10:54:19.667Z,79.64
2023-01-15T10:55:19.904Z,79.75
2023-01-15T10:56:19.936Z,79.33
2023-01-15T10:57:19.631Z,79.26
2023-01-15T10:58:20.084Z,79.23
2023-01-15T10:59:20.232Z,79.64
2023-01-15T11:00:19.631Z,79.23
2023-01-15T11:01:19.855Z,79.61
2023-01-15T11:02:19.636Z,79.03
2023-01-15T11:03:19.570Z,79.68
2023-01-15T11:04:19.667Z,79.23
2023-01-15T11:05:19.547Z,79.61
2023-01-15T11:06:19.695Z,78.78
2023-01-15T11:07:19.633Z,78.75
2023-01-15T11:09:05.967Z,79.03
2023-01-15T11:09:20.546Z,79.19
2023-01-15T11:10:19.492Z,78.51
2023-01-15T11:11:19.533Z,78.55
2023-01-15T11:12:19.452Z,79.13
2023-01-15T11:13:19.711Z,79.30
2023-01-15T11:14:20.053Z,78.96
2023-01-15T11:15:19.623Z,78.75
2023-01-15T11:16:19.723Z,79.57
2023-01-15T11:17:19.488Z,78.75
2023-01-15T11:18:19.512Z,79.57
2023-01-15T11:19:19.374Z,79.16
2023-01-15T11:20:19.384Z,79.33
2023-01-15T11:21:19.608Z,78.40
2023-01-15T11:22:19.496Z,78.40
2023-01-15T11:23:19.353Z,77.37
2023-01-15T11:24:19.575Z,77.34
2023-01-15T11:25:19.335Z,77.10
2023-01-15T11:26:19.542Z,76.76
2023-01-15T11:27:19.278Z,77.92
2023-01-15T11:28:21.299Z,77.72
2023-01-15T11:29:19.263Z,78.09
2023-01-15T11:30:19.248Z,78.36
2023-01-15T11:31:19.367Z,77.95
2023-01-15T11:32:19.275Z,77.89
2023-01-15T11:33:19.639Z,78.03
2023-01-15T11:34:21.594Z,77.65
2023-01-15T11:35:19.356Z,78.23
2023-01-15T11:36:19.635Z,77.72
2023-01-15T11:37:19.850Z,78.71
2023-01-15T11:38:20.154Z,77.37
2023-01-15T11:39:19.170Z,76.62
2023-01-15T11:40:19.197Z,76.65
2023-01-15T11:41:19.264Z,76.14
2023-01-15T11:42:19.143Z,76.72
2023-01-15T11:43:19.458Z,76.10
2023-01-15T11:44:19.476Z,75.49
2023-01-15T11:45:19.196Z,75.52
2023-01-15T11:46:19.296Z,75.63
2023-01-15T11:47:19.486Z,75.80
2023-01-15T11:48:19.097Z,75.93
2023-01-15T11:49:19.167Z,76.51
2023-01-15T11:50:19.034Z,75.42
2023-01-15T11:51:19.119Z,75.38
2023-01-15T11:52:19.007Z,74.40
2023-01-15T11:53:19.056Z,74.53
2023-01-15T11:54:19.057Z,74.91
2023-01-15T11:55:19.287Z,75.01
2023-01-15T11:56:18.959Z,75.15
2023-01-15T11:57:19.187Z,74.19
2023-01-15T11:58:19.307Z,76.28
2023-01-15T11:59:19.109Z,75.87
2023-01-15T12:00:19.221Z,75.93
2023-01-15T12:01:19.047Z,76.04
2023-01-15T12:02:19.121Z,75.46
2023-01-15T12:03:19.589Z,75.35
2023-01-15T12:04:19.022Z,75.73
2023-01-15T12:05:20.132Z,75.70
2023-01-15T12:06:19.000Z,74.87
2023-01-15T12:07:20.313Z,75.08
2023-01-15T12:08:18.813Z,74.98
2023-01-15T12:09:18.945Z,74.87
2023-01-15T12:10:18.813Z,75.35
2023-01-15T12:11:26.837Z,73.98
2023-01-15T12:12:19.768Z,74.87
2023-01-15T12:13:18.743Z,73.98
2023-01-15T12:14:18.911Z,74.22
2023-01-15T12:15:18.738Z,74.43
2023-01-15T12:16:18.765Z,75.12
2023-01-15T12:17:18.733Z,74.46
2023-01-15T12:18:19.478Z,74.77
2023-01-15T12:19:19.345Z,73.71
2023-01-15T12:20:18.692Z,74.70
2023-01-15T12:21:18.676Z,74.26
2023-01-15T12:22:19.129Z,74.26
2023-01-15T12:23:19.783Z,73.64
2023-01-15T12:24:18.671Z,73.54
2023-01-15T12:25:19.003Z,73.02
2023-01-15T12:26:18.605Z,72.78
2023-01-15T12:27:18.610Z,72.38
2023-01-15T12:28:18.618Z,72.34
2023-01-15T12:29:19.635Z,72.34
2023-01-15T12:30:18.613Z,72.82
2023-01-15T12:31:19.567Z,72.68
2023-01-15T12:32:18.572Z,72.13
2023-01-15T12:33:19.087Z,72.82
2023-01-15T12:34:18.846Z,72.48
2023-01-15T12:35:19.736Z,71.86
2023-01-15T12:36:18.784Z,70.97
2023-01-15T12:37:18.991Z,71.89
2023-01-15T12:38:18.502Z,70.79
2023-01-15T12:39:18.595Z,71.08
2023-01-15T12:40:18.760Z,70.87
2023-01-15T12:41:18.886Z,71.25
2023-01-15T12:42:18.474Z,70.73
2023-01-15T12:43:18.493Z,70.32
2023-01-15T12:44:18.491Z,70.04
2023-01-15T12:45:18.428Z,70.66
2023-01-15T12:46:18.539Z,70.76
2023-01-15T12:47:19.017Z,70.42
2023-01-15T12:48:18.566Z,70.22
2023-01-15T12:49:18.373Z,70.01
2023-01-15T12:50:18.359Z,69.53
2023-01-15T12:51:18.680Z,69.19
2023-01-15T12:52:18.967Z,70.18